createdAt,value
2024-05-09T00:00:36.372Z,99812.63
2024-05-09T00:03:08.392Z,99806.66
2024-05-09T00:05:36.910Z,99802.50
2024-05-09T00:08:04.503Z,99786.41
2024-05-09T00:10:36.538Z,99785.06
2024-05-09T00:13:06.981Z,99797.59
2024-05-09T00:15:35.234Z,99800.41
2024-05-09T00:18:03.386Z,99783.59
2024-05-09T00:20:38.212Z,99797.13
2024-05-09T00:23:09.346Z,99807.38
2024-05-09T00:25:37.718Z,99813.84
2024-05-09T00:28:05.361Z,99796.91
2024-05-09T00:30:35.570Z,99801.25
2024-05-09T00:33:07.019Z,99810.81
2024-05-09T00:35:35.480Z,99802.94
2024-05-09T00:38:03.599Z,99816.59
2024-05-09T00:40:41.827Z,99808.03
2024-05-09T00:43:12.418Z,99774.13
2024-05-09T00:45:40.494Z,99815.25
2024-05-09T00:48:09.368Z,99793.69
2024-05-09T00:50:41.652Z,99801.91
2024-05-09T00:53:11.984Z,99795.72
2024-05-09T00:55:40.488Z,99771.47
2024-05-09T00:58:11.040Z,99786.50
2024-05-09T01:00:40.495Z,99768.97
2024-05-09T01:03:11.506Z,99773.44
2024-05-09T01:05:40.695Z,99795.19
2024-05-09T01:08:08.430Z,99803.09
2024-05-09T01:10:36.712Z,99800.41
2024-05-09T01:13:05.784Z,99802.22
2024-05-09T01:15:33.764Z,99805.13
2024-05-09T01:18:04.746Z,99798.72
2024-05-09T01:20:40.532Z,99798.75
2024-05-09T01:23:11.160Z,99806.56
2024-05-09T01:25:38.399Z,99808.66
2024-05-09T01:28:06.012Z,99816.44
2024-05-09T01:30:35.824Z,99805.97
2024-05-09T01:33:07.393Z,99803.38
2024-05-09T01:35:36.374Z,99801.00
2024-05-09T01:38:03.650Z,99788.22
2024-05-09T01:40:37.346Z,99786.44
2024-05-09T01:43:10.956Z,99796.00
2024-05-09T01:45:40.037Z,99785.25
2024-05-09T01:48:08.444Z,99788.00
2024-05-09T01:50:39.864Z,99784.47
2024-05-09T01:53:14.577Z,99779.47
2024-05-09T01:55:43.036Z,99788.38
2024-05-09T01:58:10.483Z,99804.22
2024-05-09T02:00:41.347Z,99796.59
2024-05-09T02:03:14.398Z,99792.53
2024-05-09T02:05:44.891Z,99787.59
2024-05-09T02:08:18.144Z,99794.59
2024-05-09T02:10:47.482Z,99801.28
2024-05-09T02:13:15.875Z,99809.09
2024-05-09T02:15:43.271Z,99786.56
2024-05-09T02:18:11.038Z,99801.63
2024-05-09T02:20:40.643Z,99801.75
2024-05-09T02:23:09.292Z,99810.47
2024-05-09T02:25:36.497Z,99784.72
2024-05-09T02:28:03.606Z,99790.69
2024-05-09T02:30:38.848Z,99785.22
2024-05-09T02:33:11.282Z,99789.41
2024-05-09T02:35:40.267Z,99806.13
2024-05-09T02:38:11.531Z,99794.94
2024-05-09T02:40:39.875Z,99790.56
2024-05-09T02:43:09.818Z,99801.59
2024-05-09T02:45:38.257Z,99749.19
2024-05-09T02:48:06.622Z,99807.13
2024-05-09T02:50:38.477Z,99794.44
2024-05-09T02:53:08.793Z,99805.84
2024-05-09T02:55:37.378Z,99802.88
2024-05-09T02:58:04.900Z,99806.28
2024-05-09T03:00:39.130Z,99802.81
2024-05-09T03:03:10.800Z,99811.41
2024-05-09T03:05:40.162Z,99793.00
2024-05-09T03:08:08.479Z,99821.50
2024-05-09T03:10:37.814Z,99805.66
2024-05-09T03:13:15.062Z,99813.97
2024-05-09T03:15:43.730Z,99822.59
2024-05-09T03:18:11.937Z,99824.41
2024-05-09T03:20:39.984Z,99788.69
2024-05-09T03:23:09.380Z,99809.84
2024-05-09T03:25:38.077Z,99815.19
2024-05-09T03:28:05.633Z,99799.06
2024-05-09T03:30:40.039Z,99784.88
2024-05-09T03:33:20.496Z,99782.28
2024-05-09T03:35:49.230Z,99816.38
2024-05-09T03:38:17.026Z,99791.63
2024-05-09T03:40:53.323Z,99816.31
2024-05-09T03:43:20.371Z,99818.97
2024-05-09T03:45:49.353Z,99811.38
2024-05-09T03:48:17.036Z,99815.84
2024-05-09T03:50:44.320Z,99810.59
2024-05-09T03:53:13.920Z,99803.81
2024-05-09T03:55:41.416Z,99808.94
2024-05-09T03:58:08.684Z,99811.38
2024-05-09T04:00:39.179Z,99798.09
2024-05-09T04:03:10.474Z,99809.69
2024-05-09T04:05:42.086Z,99816.56
2024-05-09T04:08:11.501Z,99801.22
2024-05-09T04:10:38.796Z,99797.25
2024-05-09T04:13:05.931Z,99817.53
2024-05-09T04:15:33.006Z,99820.91
2024-05-09T04:18:00.735Z,99812.59
2024-05-09T04:20:36.263Z,99811.59
2024-05-09T04:23:08.270Z,99825.03
2024-05-09T04:25:36.393Z,99809.69
2024-05-09T04:28:03.740Z,99817.28
2024-05-09T04:30:37.373Z,99819.88
2024-05-09T04:33:09.359Z,99816.44
2024-05-09T04:35:38.908Z,99797.84
2024-05-09T04:38:07.602Z,99813.19
2024-05-09T04:40:36.790Z,99804.47
2024-05-09T04:43:15.964Z,99807.81
2024-05-09T04:45:43.164Z,99820.66
2024-05-09T04:48:10.725Z,99811.19
2024-05-09T04:50:39.449Z,99824.91
2024-05-09T04:53:10.028Z,99809.38
2024-05-09T04:55:38.564Z,99827.31
2024-05-09T04:58:09.021Z,99811.53
2024-05-09T05:00:38.766Z,99826.63
2024-05-09T05:03:12.756Z,99823.19
2024-05-09T05:05:43.620Z,99825.03
2024-05-09T05:08:18.184Z,99835.16
2024-05-09T05:10:49.018Z,99824.97
2024-05-09T05:13:18.292Z,99839.22
2024-05-09T05:15:47.470Z,99839.59
2024-05-09T05:18:15.942Z,99802.91
2024-05-09T05:20:43.555Z,99791.66
2024-05-09T05:23:15.744Z,99827.91
2024-05-09T05:25:43.097Z,99839.81
2024-05-09T05:28:10.961Z,99832.97
2024-05-09T05:30:38.808Z,99840.63
2024-05-09T05:33:07.165Z,99837.22
2024-05-09T05:35:35.147Z,99837.34
2024-05-09T05:38:03.409Z,99798.44
2024-05-09T05:40:37.083Z,99835.56
2024-05-09T05:43:08.302Z,99844.88
2024-05-09T05:45:35.355Z,99842.22
2024-05-09T05:48:05.902Z,99820.25
2024-05-09T05:50:36.714Z,99817.72
2024-05-09T05:53:07.813Z,99849.88
2024-05-09T05:55:36.645Z,99847.22
2024-05-09T05:58:04.023Z,99840.34
2024-05-09T06:00:38.140Z,99848.47
2024-05-09T06:03:14.297Z,99832.25
2024-05-09T06:05:46.023Z,99844.47
2024-05-09T06:08:13.246Z,99837.16
2024-05-09T06:10:41.934Z,99850.66
2024-05-09T06:13:13.126Z,99847.16
2024-05-09T06:15:41.468Z,99844.56
2024-05-09T06:18:10.983Z,99850.47
2024-05-09T06:20:40.359Z,99838.53
2024-05-09T06:23:09.723Z,99835.75
2024-05-09T06:25:37.964Z,99823.00
2024-05-09T06:28:05.694Z,99831.44
2024-05-09T06:30:42.665Z,99849.28
2024-05-09T06:33:13.202Z,99846.50
2024-05-09T06:35:42.617Z,99845.53
2024-05-09T06:38:09.949Z,99840.94
2024-05-09T06:40:41.232Z,99847.59
2024-05-09T06:43:18.872Z,99849.16
2024-05-09T06:45:54.802Z,99846.00
2024-05-09T06:48:22.813Z,99842.56
2024-05-09T06:50:52.141Z,99845.97
2024-05-09T06:53:23.489Z,99838.50
2024-05-09T06:55:50.732Z,99850.53
2024-05-09T06:58:18.103Z,99849.88
2024-05-09T07:00:45.104Z,99845.06
2024-05-09T07:03:16.673Z,99846.31
2024-05-09T07:05:46.537Z,99845.88
2024-05-09T07:08:14.606Z,99839.94
2024-05-09T07:10:41.784Z,99830.16
2024-05-09T07:13:13.670Z,99836.72
2024-05-09T07:15:41.852Z,99830.50
2024-05-09T07:18:20.252Z,99815.19
2024-05-09T07:20:49.232Z,99823.38
2024-05-09T07:23:17.962Z,99819.75
2024-05-09T07:25:45.323Z,99815.47
2024-05-09T07:28:17.918Z,99831.50
2024-05-09T07:30:46.082Z,99826.38
2024-05-09T07:33:22.911Z,99829.50
2024-05-09T07:35:51.405Z,99826.78
2024-05-09T07:38:18.908Z,99821.59
2024-05-09T07:40:46.203Z,99779.38
2024-05-09T07:43:14.585Z,99804.63
2024-05-09T07:45:50.825Z,99799.50
2024-05-09T07:52:37.809Z,99797.13
2024-05-09T07:53:47.750Z,99805.25
2024-05-09T07:56:20.382Z,99802.47
2024-05-09T07:58:51.245Z,99797.91
2024-05-09T08:01:18.787Z,99791.75
2024-05-09T08:03:46.248Z,99779.66
2024-05-09T08:06:13.498Z,99795.66
2024-05-09T08:08:41.147Z,99787.72
2024-05-09T08:11:08.145Z,99783.66
2024-05-09T08:13:35.121Z,99768.41
2024-05-09T08:16:02.176Z,99765.69
2024-05-09T08:18:29.537Z,99774.13
2024-05-09T08:20:56.736Z,99766.19
2024-05-09T08:23:23.943Z,99747.19
2024-05-09T08:25:52.799Z,99752.94
2024-05-09T08:28:19.865Z,99755.91
2024-05-09T08:30:46.957Z,99739.94
2024-05-09T08:33:14.261Z,99766.16
2024-05-09T08:35:42.040Z,99737.09
2024-05-09T08:38:09.812Z,99763.16
2024-05-09T08:40:38.022Z,99763.31
2024-05-09T08:43:11.584Z,99762.38
2024-05-09T08:45:44.056Z,99749.38
2024-05-09T08:48:15.169Z,99740.84
2024-05-09T08:50:44.838Z,99749.97
2024-05-09T08:53:14.447Z,99744.00
2024-05-09T08:55:43.462Z,99746.19
2024-05-09T08:58:16.683Z,99744.22
2024-05-09T09:00:46.170Z,99724.59
2024-05-09T09:03:19.714Z,99741.94
2024-05-09T09:06:09.201Z,99743.28
2024-05-09T09:08:39.422Z,99744.81
2024-05-09T09:11:06.678Z,99725.00
2024-05-09T09:13:33.631Z,99746.03
2024-05-09T09:16:02.676Z,99724.50
2024-05-09T09:18:33.204Z,99745.75
2024-05-09T09:21:00.372Z,99729.78
2024-05-09T09:23:29.758Z,99729.63
2024-05-09T09:26:00.611Z,99723.34
2024-05-09T09:28:27.797Z,99740.69
2024-05-09T09:31:03.268Z,99744.69
2024-05-09T09:33:31.700Z,99744.47
2024-05-09T09:36:00.602Z,99738.31
2024-05-09T09:38:32.518Z,99729.91
2024-05-09T09:41:01.521Z,99720.31
2024-05-09T09:43:29.580Z,99733.63
2024-05-09T09:45:59.891Z,99739.47
2024-05-09T09:48:31.288Z,99718.31
2024-05-09T09:50:59.581Z,99701.53
2024-05-09T09:53:28.684Z,99728.28
2024-05-09T09:55:56.202Z,99716.31
2024-05-09T09:58:23.903Z,99711.81
2024-05-09T10:00:51.068Z,99697.19
2024-05-09T10:03:18.101Z,99720.72
2024-05-09T10:05:47.150Z,99723.91
2024-05-09T10:08:16.010Z,99723.56
2024-05-09T10:10:47.576Z,99717.84
2024-05-09T10:13:15.212Z,99711.78
2024-05-09T10:15:46.430Z,99714.47
2024-05-09T10:18:14.579Z,99725.78
2024-05-09T10:20:46.454Z,99726.09
2024-05-09T10:23:26.964Z,99728.78
2024-05-09T10:26:05.334Z,99711.09
2024-05-09T10:28:35.621Z,99712.72
2024-05-09T10:31:15.696Z,99701.19
2024-05-09T10:33:49.392Z,99707.59
2024-05-09T10:36:26.823Z,99719.50
2024-05-09T10:38:54.737Z,99715.97
2024-05-09T10:41:23.473Z,99706.94
2024-05-09T10:43:52.628Z,99676.00
2024-05-09T10:46:20.224Z,99695.81
2024-05-09T10:48:48.438Z,99710.22
2024-05-09T10:51:19.534Z,99712.59
2024-05-09T10:53:48.213Z,99708.84
2024-05-09T10:56:15.888Z,99709.50
2024-05-09T10:58:42.997Z,99696.53
2024-05-09T11:01:10.988Z,99696.19
2024-05-09T11:03:39.260Z,99698.72
2024-05-09T11:06:07.215Z,99687.78
2024-05-09T11:08:35.103Z,99679.00
2024-05-09T11:11:07.166Z,99692.94
2024-05-09T11:13:39.119Z,99694.44
2024-05-09T11:16:21.888Z,99682.31
2024-05-09T11:18:57.210Z,99684.97
2024-05-09T11:21:24.899Z,99677.22
2024-05-09T11:23:53.714Z,99670.81
2024-05-09T11:26:22.060Z,99676.25
2024-05-09T11:28:50.538Z,99629.53
2024-05-09T11:31:18.145Z,99670.00
2024-05-09T11:33:48.210Z,99665.03
2024-05-09T11:36:15.818Z,99661.28
2024-05-09T11:38:43.043Z,99675.13
2024-05-09T11:41:18.023Z,99674.94
2024-05-09T11:43:45.052Z,99661.09
2024-05-09T11:46:12.211Z,99649.31
2024-05-09T11:48:40.581Z,99648.22
2024-05-09T11:51:07.717Z,99655.28
2024-05-09T11:53:34.703Z,99648.53
2024-05-09T11:56:01.650Z,99636.97
2024-05-09T11:58:34.151Z,99644.97
2024-05-09T12:01:02.159Z,99625.09
2024-05-09T12:03:29.631Z,99639.56
2024-05-09T12:05:57.009Z,99630.97
2024-05-09T12:08:24.075Z,99624.88
2024-05-09T12:10:52.183Z,99618.63
2024-05-09T12:13:19.345Z,99613.28
2024-05-09T12:15:46.405Z,99627.28
2024-05-09T12:18:13.474Z,99622.50
2024-05-09T12:20:40.531Z,99631.97
2024-05-09T12:23:09.620Z,99623.84
2024-05-09T12:25:38.748Z,99614.19
2024-05-09T12:28:07.206Z,99614.69
2024-05-09T12:30:38.476Z,99612.13
2024-05-09T12:33:14.164Z,99601.63
2024-05-09T12:35:44.380Z,99587.84
2024-05-09T12:38:14.913Z,99614.06
2024-05-09T12:40:42.716Z,99606.94
2024-05-09T12:43:10.862Z,99598.34
2024-05-09T12:45:39.368Z,99584.50
2024-05-09T12:48:11.745Z,99602.34
2024-05-09T12:50:40.403Z,99602.66
2024-05-09T12:53:07.526Z,99595.66
2024-05-09T12:55:41.386Z,99602.78
2024-05-09T12:58:17.418Z,99597.53
2024-05-09T13:00:45.320Z,99592.91
2024-05-09T13:03:12.787Z,99574.84
2024-05-09T13:05:41.443Z,99590.28
2024-05-09T13:08:09.102Z,99569.09
2024-05-09T13:10:36.766Z,99565.44
2024-05-09T13:13:03.857Z,99578.09
2024-05-09T13:15:31.591Z,99587.84
2024-05-09T13:18:02.170Z,99587.66
2024-05-09T13:20:34.428Z,99590.91
2024-05-09T13:23:05.647Z,99567.72
2024-05-09T13:25:37.739Z,99557.13
2024-05-09T13:28:06.259Z,99570.56
2024-05-09T13:30:39.786Z,99575.28
2024-05-09T13:33:11.580Z,99577.91
2024-05-09T13:35:45.530Z,99575.91
2024-05-09T13:38:16.801Z,99573.41
2024-05-09T13:40:43.986Z,99568.56
2024-05-09T13:43:11.187Z,99555.28
2024-05-09T13:45:38.241Z,99557.47
2024-05-09T13:48:06.872Z,99547.38
2024-05-09T13:50:36.340Z,99558.38
2024-05-09T13:53:06.479Z,99539.22
2024-05-09T13:55:35.105Z,99551.38
2024-05-09T13:58:02.809Z,99532.91
2024-05-09T14:02:59.808Z,99536.78
2024-05-09T14:05:27.027Z,99542.88
2024-05-09T14:07:54.114Z,99533.84
2024-05-09T14:10:28.449Z,99533.50
2024-05-09T14:12:57.923Z,99538.75
2024-05-09T14:15:24.922Z,99519.28
2024-05-09T14:17:51.960Z,99518.22
2024-05-09T14:20:28.522Z,99522.69
2024-05-09T14:22:59.249Z,99484.66
2024-05-09T14:25:35.082Z,99511.53
2024-05-09T14:28:04.145Z,99513.44
2024-05-09T14:30:36.745Z,99497.53
2024-05-09T14:33:06.639Z,99500.53
2024-05-09T14:35:34.657Z,99507.22
2024-05-09T14:38:02.068Z,99498.25
2024-05-09T14:40:39.107Z,99509.38
2024-05-09T14:43:14.883Z,99498.25
2024-05-09T14:45:43.703Z,99494.66
2024-05-09T14:48:14.142Z,99504.94
2024-05-09T14:50:41.759Z,99498.25
2024-05-09T14:53:11.031Z,99498.00
2024-05-09T14:55:41.344Z,99499.19
2024-05-09T14:58:12.136Z,99475.00
2024-05-09T15:00:46.926Z,99490.13
2024-05-09T15:03:18.741Z,99492.53
2024-05-09T15:05:47.489Z,99480.59
2024-05-09T15:08:16.738Z,99478.56
2024-05-09T15:10:43.935Z,99461.38
2024-05-09T15:13:13.467Z,99476.28
2024-05-09T15:15:42.784Z,99460.75
2024-05-09T15:18:10.153Z,99462.97
2024-05-09T15:20:37.916Z,99468.94
2024-05-09T15:23:07.011Z,99433.91
2024-05-09T15:25:35.704Z,99470.34
2024-05-09T15:28:03.749Z,99446.31
2024-05-09T15:30:33.156Z,99465.53
2024-05-09T15:33:06.041Z,99456.44
2024-05-09T15:35:34.283Z,99457.91
2024-05-09T15:38:03.215Z,99458.41
2024-05-09T15:40:37.778Z,99443.69
2024-05-09T15:43:09.131Z,99458.25
2024-05-09T15:45:37.769Z,99435.91
2024-05-09T15:48:06.006Z,99440.38
2024-05-09T15:50:38.693Z,99453.13
2024-05-09T15:53:09.906Z,99447.66
2024-05-09T15:55:38.044Z,99441.97
2024-05-09T15:58:06.419Z,99436.81
2024-05-09T16:00:38.852Z,99430.13
2024-05-09T16:03:10.490Z,99444.09
2024-05-09T16:05:38.213Z,99451.88
2024-05-09T16:08:07.289Z,99444.00
2024-05-09T16:10:35.148Z,99433.84
2024-05-09T16:13:03.543Z,99436.03
2024-05-09T16:15:31.266Z,99447.94
2024-05-09T16:17:58.478Z,99436.09
2024-05-09T16:20:34.720Z,99434.22
2024-05-09T16:23:07.813Z,99415.69
2024-05-09T16:25:35.063Z,99435.53
2024-05-09T16:28:07.049Z,99427.78
2024-05-09T16:30:36.933Z,99426.44
2024-05-09T16:33:05.525Z,99434.81
2024-05-09T16:35:34.469Z,99427.91
2024-05-09T16:38:02.771Z,99425.50
2024-05-09T16:40:37.347Z,99431.00
2024-05-09T16:43:10.905Z,99408.66
2024-05-09T16:45:40.325Z,99426.94
2024-05-09T16:48:08.526Z,99438.03
2024-05-09T16:50:36.499Z,99421.91
2024-05-09T16:53:06.246Z,99420.25
2024-05-09T16:55:34.637Z,99415.94
2024-05-09T16:58:02.687Z,99417.16
2024-05-09T17:00:39.339Z,99423.84
2024-05-09T17:03:14.700Z,99408.78
2024-05-09T17:05:43.359Z,99409.28
2024-05-09T17:08:10.616Z,99417.75
2024-05-09T17:10:37.725Z,99418.31
2024-05-09T17:13:06.828Z,99420.03
2024-05-09T17:15:36.203Z,99414.53
2024-05-09T17:18:04.854Z,99415.81
2024-05-09T17:20:35.666Z,99421.34
2024-05-09T17:23:12.361Z,99405.44
2024-05-09T17:25:40.115Z,99403.28
2024-05-09T17:28:08.337Z,99426.22
2024-05-09T17:30:38.616Z,99406.59
2024-05-09T17:33:09.414Z,99417.84
2024-05-09T17:35:37.551Z,99413.91
2024-05-09T17:38:08.279Z,99415.44
2024-05-09T17:40:37.411Z,99427.84
2024-05-09T17:43:08.460Z,99427.13
2024-05-09T17:45:38.392Z,99415.03
2024-05-09T17:48:06.584Z,99417.06
2024-05-09T17:50:36.342Z,99418.03
2024-05-09T17:53:08.232Z,99401.91
2024-05-09T17:55:36.530Z,99420.16
2024-05-09T17:58:05.119Z,99428.53
2024-05-09T18:00:38.353Z,99426.66
2024-05-09T18:03:11.726Z,99435.69
2024-05-09T18:05:39.934Z,99434.31
2024-05-09T18:08:08.135Z,99415.78
2024-05-09T18:10:38.550Z,99428.44
2024-05-09T18:13:09.000Z,99429.94
2024-05-09T18:15:36.488Z,99406.97
2024-05-09T18:18:04.604Z,99423.81
2024-05-09T18:20:40.487Z,99423.97
2024-05-09T18:23:13.054Z,99414.13
2024-05-09T18:25:40.096Z,99443.38
2024-05-09T18:28:07.707Z,99433.69
2024-05-09T18:30:38.405Z,99435.81
2024-05-09T18:33:07.679Z,99447.22
2024-05-09T18:35:36.249Z,99428.91
2024-05-09T18:38:04.074Z,99447.78
2024-05-09T18:40:35.729Z,99421.97
2024-05-09T18:43:07.591Z,99444.22
2024-05-09T18:45:39.876Z,99437.00
2024-05-09T18:48:09.672Z,99446.13
2024-05-09T18:50:40.216Z,99440.66
2024-05-09T18:53:12.727Z,99456.59
2024-05-09T18:55:41.598Z,99450.75
2024-05-09T18:58:08.727Z,99451.16
2024-05-09T19:00:38.852Z,99454.31
2024-05-09T19:03:10.938Z,99454.22
2024-05-09T19:05:40.834Z,99461.25
2024-05-09T19:08:08.821Z,99463.00
2024-05-09T19:10:38.858Z,99465.22
2024-05-09T19:13:10.897Z,99469.19
2024-05-09T19:15:40.749Z,99459.53
2024-05-09T19:18:09.480Z,99456.59
2024-05-09T19:20:37.360Z,99473.97
2024-05-09T19:23:06.149Z,99479.09
2024-05-09T19:25:34.404Z,99490.00
2024-05-09T19:28:01.654Z,99478.53
2024-05-09T19:30:37.144Z,99493.69
2024-05-09T19:33:08.422Z,99487.53
2024-05-09T19:35:35.884Z,99478.50
2024-05-09T19:38:03.090Z,99487.47
2024-05-09T19:40:32.459Z,99479.09
2024-05-09T19:43:02.694Z,99499.63
2024-05-09T19:45:31.215Z,99494.72
2024-05-09T19:47:58.765Z,99484.63
2024-05-09T19:50:36.168Z,99494.72
2024-05-09T19:53:08.785Z,99502.09
2024-05-09T19:55:35.819Z,99488.88
2024-05-09T19:58:05.443Z,99475.94
2024-05-09T20:00:40.391Z,99494.22
2024-05-09T20:03:11.286Z,99492.06
2024-05-09T20:05:39.324Z,99494.88
2024-05-09T20:08:07.156Z,99500.88
2024-05-09T20:10:35.787Z,99500.13
2024-05-09T20:13:06.678Z,99507.22
2024-05-09T20:15:35.732Z,99504.50
2024-05-09T20:18:03.410Z,99508.16
2024-05-09T20:20:37.498Z,99494.25
2024-05-09T20:23:09.201Z,99473.47
2024-05-09T20:25:36.379Z,99499.28
2024-05-09T20:28:03.577Z,99508.19
2024-05-09T20:30:33.047Z,99498.50
2024-05-09T20:33:07.350Z,99510.03
2024-05-09T20:35:35.770Z,99491.56
2024-05-09T20:38:03.654Z,99484.31
2024-05-09T20:40:35.394Z,99494.38
2024-05-09T20:43:06.745Z,99505.03
2024-05-09T20:45:34.539Z,99499.59
2024-05-09T20:48:02.174Z,99506.69
2024-05-09T20:50:37.083Z,99495.09
2024-05-09T20:53:13.121Z,99497.81
2024-05-09T20:55:41.566Z,99510.13
2024-05-09T20:58:09.632Z,99509.41
2024-05-09T21:00:40.608Z,99491.56
2024-05-09T21:03:11.649Z,99503.78
2024-05-09T21:05:39.498Z,99508.25
2024-05-09T21:08:07.538Z,99485.31
2024-05-09T21:10:36.228Z,99511.91
2024-05-09T21:13:04.207Z,99502.00
2024-05-09T21:15:32.059Z,99511.72
2024-05-09T21:17:59.691Z,99516.22
2024-05-09T21:22:57.687Z,99499.69
2024-05-09T21:25:24.708Z,99513.19
2024-05-09T21:27:51.874Z,99513.28
2024-05-09T21:30:28.143Z,99508.06
2024-05-09T21:33:05.145Z,99494.06
2024-05-09T21:35:32.254Z,99518.78
2024-05-09T21:37:59.187Z,99508.72
2024-05-09T21:40:33.425Z,99520.91
2024-05-09T21:43:02.660Z,99499.13
2024-05-09T21:45:29.819Z,99509.50
2024-05-09T21:47:56.888Z,99507.06
2024-05-09T21:50:31.834Z,99518.16
2024-05-09T21:53:05.829Z,99513.00
2024-05-09T21:55:32.782Z,99518.06
2024-05-09T21:57:59.802Z,99520.25
2024-05-09T22:00:34.619Z,99502.75
2024-05-09T22:03:05.344Z,99515.34
2024-05-09T22:05:32.858Z,99513.84
2024-05-09T22:08:00.067Z,99515.44
2024-05-09T22:10:33.261Z,99511.81
2024-05-09T22:13:04.024Z,99504.69
2024-05-09T22:15:35.361Z,99504.09
2024-05-09T22:18:03.852Z,99505.03
2024-05-09T22:20:36.896Z,99507.75
2024-05-09T22:23:06.254Z,99503.78
2024-05-09T22:25:33.714Z,99494.22
2024-05-09T22:28:01.996Z,99508.84
2024-05-09T22:32:59.203Z,99497.53
2024-05-09T22:35:26.457Z,99498.00
2024-05-09T22:37:53.510Z,99514.25
2024-05-09T22:40:28.375Z,99507.28
2024-05-09T22:43:04.803Z,99514.91
2024-05-09T22:45:31.955Z,99520.38
2024-05-09T22:47:59.371Z,99524.34
2024-05-09T22:50:30.605Z,99508.34
2024-05-09T22:52:59.658Z,99509.88
2024-05-09T22:55:26.660Z,99525.75
2024-05-09T22:57:53.631Z,99514.91
2024-05-09T23:00:29.207Z,99519.25
2024-05-09T23:03:02.714Z,99511.19
2024-05-09T23:05:32.062Z,99528.41
2024-05-09T23:08:00.997Z,99531.88
2024-05-09T23:10:35.218Z,99523.97
2024-05-09T23:13:05.412Z,99522.63
2024-05-09T23:15:32.662Z,99527.22
2024-05-09T23:17:59.897Z,99524.63
2024-05-09T23:20:35.926Z,99519.16
2024-05-09T23:23:10.599Z,99528.56
2024-05-09T23:25:38.850Z,99532.31
2024-05-09T23:28:06.418Z,99527.63
2024-05-09T23:30:38.755Z,99519.41
2024-05-09T23:33:10.994Z,99530.28
2024-05-09T23:35:40.871Z,99521.91
2024-05-09T23:38:07.889Z,99537.09
2024-05-09T23:40:38.928Z,99503.28
2024-05-09T23:43:09.732Z,99526.34
2024-05-09T23:45:37.659Z,99529.31
2024-05-09T23:48:06.203Z,99515.00
2024-05-09T23:50:37.508Z,99524.97
2024-05-09T23:53:07.998Z,99511.28
2024-05-09T23:55:36.370Z,99509.56
2024-05-09T23:58:03.582Z,99523.88
